createdAt,value
2019-04-03T00:02:04.375Z,5.77
2019-04-03T00:04:52.258Z,4.93
2019-04-03T00:07:40.046Z,12.87
2019-04-03T00:10:27.808Z,4.47
2019-04-03T00:13:15.727Z,5.93
2019-04-03T00:16:03.530Z,4.23
2019-04-03T00:18:51.336Z,4.80
2019-04-03T00:21:39.134Z,9.70
2019-04-03T00:24:26.917Z,6.67
2019-04-03T00:26:55.405Z,5.27
2019-04-03T00:29:23.968Z,9.03
2019-04-03T00:32:11.806Z,5.60
2019-04-03T00:34:59.575Z,7.83
2019-04-03T00:37:47.351Z,7.73
2019-04-03T00:40:35.103Z,4.50
2019-04-03T00:43:24.605Z,7.33
2019-04-03T00:46:12.383Z,8.00
2019-04-03T00:49:00.162Z,5.77
2019-04-03T00:51:47.607Z,11.00
2019-04-03T00:54:35.369Z,9.33
2019-04-03T00:57:23.149Z,6.20
2019-04-03T01:00:31.645Z,6.93
2019-04-03T01:03:00.281Z,5.83
2019-04-03T01:05:29.108Z,9.20
2019-04-03T01:08:18.255Z,8.63
2019-04-03T01:11:06.203Z,8.13
2019-04-03T01:13:53.963Z,4.20
2019-04-03T01:16:41.749Z,6.43
2019-04-03T01:19:29.516Z,4.57
2019-04-03T01:22:17.294Z,7.03
2019-04-03T01:25:08.382Z,6.27
2019-04-03T01:27:55.366Z,5.60
2019-04-03T01:30:36.308Z,6.03
2019-04-03T01:33:17.221Z,5.30
2019-04-03T01:35:57.783Z,6.83
2019-04-03T01:38:38.909Z,4.27
2019-04-03T01:41:21.280Z,5.87
2019-04-03T01:44:02.069Z,5.07
2019-04-03T01:46:42.652Z,9.93
2019-04-03T01:49:23.937Z,4.00
2019-04-03T01:52:04.796Z,7.00
2019-04-03T01:54:45.812Z,4.70
2019-04-03T01:57:26.481Z,7.73
2019-04-03T02:00:08.108Z,6.90
2019-04-03T02:02:48.991Z,5.00
2019-04-03T02:05:30.070Z,5.10
2019-04-03T02:08:10.723Z,6.70
2019-04-03T02:10:51.260Z,12.43
2019-04-03T02:13:32.105Z,7.80
2019-04-03T02:16:12.659Z,4.90
2019-04-03T02:18:53.563Z,5.50
2019-04-03T02:21:36.207Z,5.27
2019-04-03T02:24:16.936Z,10.23
2019-04-03T02:26:57.540Z,5.10
2019-04-03T02:29:39.747Z,7.90
2019-04-03T02:32:23.462Z,7.70
2019-04-03T02:35:06.492Z,6.40
2019-04-03T02:37:48.392Z,13.80
2019-04-03T02:40:31.448Z,8.40
2019-04-03T02:43:13.646Z,4.23
2019-04-03T02:45:55.517Z,6.47
2019-04-03T02:48:38.306Z,7.50
2019-04-03T02:51:19.861Z,5.30
2019-04-03T02:54:02.492Z,7.07
2019-04-03T02:56:45.259Z,4.67
2019-04-03T02:59:26.897Z,8.60
2019-04-03T03:02:11.454Z,6.70
2019-04-03T03:04:53.928Z,7.70
2019-04-03T03:07:36.331Z,5.37
2019-04-03T03:10:18.851Z,16.30
2019-04-03T03:13:01.092Z,9.90
2019-04-03T03:15:43.332Z,14.10
2019-04-03T03:18:24.617Z,6.90
2019-04-03T03:21:06.534Z,8.70
2019-04-03T03:23:47.253Z,9.37
2019-04-03T03:26:27.829Z,8.87
2019-04-03T03:29:17.627Z,14.63
2019-04-03T03:32:16.559Z,16.63
2019-04-03T03:34:51.467Z,15.10
2019-04-03T03:37:16.614Z,19.00
2019-04-03T03:39:57.324Z,17.53
2019-04-03T03:42:30.095Z,9.60
2019-04-03T03:45:19.401Z,15.73
2019-04-03T03:48:09.165Z,16.47
2019-04-03T03:50:57.132Z,9.53
2019-04-03T03:54:05.717Z,9.37
2019-04-03T03:56:53.813Z,10.30
2019-04-03T03:59:42.098Z,12.37
2019-04-03T04:02:29.867Z,14.50
2019-04-03T04:05:20.599Z,12.30
2019-04-03T04:08:27.876Z,12.80
2019-04-03T04:10:59.440Z,13.23
2019-04-03T04:13:48.515Z,19.07
2019-04-03T04:16:37.048Z,14.70
2019-04-03T04:19:28.361Z,12.50
2019-04-03T04:21:55.288Z,11.40
2019-04-03T04:24:43.239Z,10.37
2019-04-03T04:27:11.666Z,9.70
2019-04-03T04:29:51.917Z,10.47
2019-04-03T04:32:32.687Z,11.60
2019-04-03T04:35:13.481Z,13.83
2019-04-03T04:37:55.958Z,11.70
2019-04-03T04:40:37.443Z,9.37
2019-04-03T04:43:07.655Z,7.67
2019-04-03T04:45:36.039Z,12.00
2019-04-03T04:48:04.912Z,9.83
2019-04-03T04:50:33.354Z,12.60
2019-04-03T04:53:01.850Z,6.13
2019-04-03T04:55:31.467Z,7.97
2019-04-03T04:58:01.080Z,9.10
2019-04-03T05:00:30.293Z,6.10
2019-04-03T05:03:01.081Z,4.90
2019-04-03T05:05:30.708Z,5.67
2019-04-03T05:07:59.811Z,5.63
2019-04-03T05:10:29.265Z,5.43
2019-04-03T05:12:57.678Z,8.00
2019-04-03T05:15:26.127Z,5.93
2019-04-03T05:17:55.810Z,6.03
2019-04-03T05:20:24.779Z,7.07
2019-04-03T05:22:55.366Z,6.90
2019-04-03T05:25:23.681Z,7.53
2019-04-03T05:27:52.138Z,7.57
2019-04-03T05:30:31.247Z,7.47
2019-04-03T05:32:59.949Z,6.40
2019-04-03T05:35:28.390Z,9.03
2019-04-03T05:37:56.814Z,16.17
2019-04-03T05:40:26.222Z,5.93
2019-04-03T05:42:55.013Z,6.50
2019-04-03T05:45:23.710Z,7.73
2019-04-03T05:47:52.203Z,13.03
2019-04-03T05:50:20.657Z,9.63
2019-04-03T05:52:49.173Z,9.87
2019-04-03T05:55:17.822Z,8.80
2019-04-03T05:57:46.268Z,9.00
2019-04-03T06:00:14.917Z,12.40
2019-04-03T06:02:43.356Z,8.63
2019-04-03T06:05:13.375Z,14.00
2019-04-03T06:07:41.830Z,7.77
2019-04-03T06:10:10.555Z,13.37
2019-04-03T06:12:39.019Z,10.97
2019-04-03T06:15:09.854Z,10.47
2019-04-03T06:17:38.423Z,9.90
2019-04-03T06:20:10.526Z,12.40
2019-04-03T06:22:37.304Z,12.17
2019-04-03T06:25:06.768Z,11.10
2019-04-03T06:27:35.488Z,13.30
2019-04-03T06:30:06.281Z,11.87
2019-04-03T06:32:34.838Z,11.50
2019-04-03T06:35:03.568Z,12.20
2019-04-03T06:37:32.251Z,8.63
2019-04-03T06:40:02.872Z,16.33
2019-04-03T06:42:31.005Z,12.87
2019-04-03T06:44:59.402Z,14.87
2019-04-03T06:47:27.899Z,31.13
2019-04-03T06:49:56.453Z,13.30
2019-04-03T06:52:25.460Z,18.93
2019-04-03T06:54:53.978Z,17.60
2019-04-03T06:57:22.433Z,18.63
2019-04-03T06:59:51.187Z,17.10
2019-04-03T07:02:19.659Z,19.33
2019-04-03T07:04:48.086Z,21.10
2019-04-03T07:07:31.487Z,21.30
2019-04-03T07:09:46.659Z,20.20
2019-04-03T07:12:15.966Z,14.90
2019-04-03T07:14:44.811Z,20.80
2019-04-03T07:17:13.273Z,17.57
2019-04-03T07:19:42.059Z,13.00
2019-04-03T07:22:10.773Z,29.13
2019-04-03T07:24:39.400Z,18.97
2019-04-03T07:27:08.125Z,24.80
2019-04-03T07:29:36.551Z,25.43
2019-04-03T07:32:06.000Z,21.43
2019-04-03T07:34:34.668Z,25.70
2019-04-03T07:37:03.292Z,12.27
2019-04-03T07:39:31.703Z,13.70
2019-04-03T07:42:00.134Z,16.03
2019-04-03T07:44:30.175Z,12.87
2019-04-03T07:46:59.015Z,8.57
2019-04-03T07:49:27.452Z,8.43
2019-04-03T07:51:55.897Z,8.90
2019-04-03T07:54:26.601Z,12.17
2019-04-03T07:56:56.797Z,9.70
2019-04-03T07:59:24.665Z,9.87
2019-04-03T08:01:53.090Z,7.20
2019-04-03T08:04:23.968Z,8.23
2019-04-03T08:06:52.184Z,6.27
2019-04-03T08:09:20.771Z,8.17
2019-04-03T08:11:49.195Z,8.80
2019-04-03T08:14:19.383Z,6.07
2019-04-03T08:16:48.217Z,10.63
2019-04-03T08:19:17.517Z,6.03
2019-04-03T08:21:46.319Z,6.10
2019-04-03T08:24:14.783Z,6.90
2019-04-03T08:26:43.242Z,6.67
2019-04-03T08:29:12.054Z,11.53
2019-04-03T08:31:42.737Z,8.90
2019-04-03T08:34:17.090Z,7.63
2019-04-03T08:36:40.860Z,6.87
2019-04-03T08:39:09.377Z,11.77
2019-04-03T08:41:37.980Z,7.50
2019-04-03T08:44:08.426Z,6.70
2019-04-03T08:46:36.636Z,7.87
2019-04-03T08:49:05.103Z,5.27
2019-04-03T08:51:33.918Z,5.90
2019-04-03T08:54:04.224Z,7.80
2019-04-03T08:56:32.981Z,9.83
2019-04-03T08:59:01.539Z,6.43
2019-04-03T09:01:30.241Z,6.17
2019-04-03T09:03:59.146Z,8.20
2019-04-03T09:06:28.139Z,5.80
2019-04-03T09:08:58.188Z,7.63
2019-04-03T09:11:26.779Z,7.40
2019-04-03T09:13:55.787Z,7.23
2019-04-03T09:16:24.803Z,7.37
2019-04-03T09:18:53.532Z,7.30
2019-04-03T09:21:22.046Z,6.00
2019-04-03T09:23:52.518Z,8.17
2019-04-03T09:26:20.965Z,6.27
2019-04-03T09:28:49.410Z,6.33
2019-04-03T09:31:19.887Z,5.10
2019-04-03T09:33:48.323Z,4.53
2019-04-03T09:36:16.895Z,5.83
2019-04-03T09:38:45.322Z,5.07
2019-04-03T09:41:13.762Z,6.57
2019-04-03T09:43:42.191Z,10.10
2019-04-03T09:46:10.632Z,5.70
2019-04-03T09:48:39.260Z,5.43
2019-04-03T09:51:09.353Z,4.60
2019-04-03T09:53:37.914Z,6.43
2019-04-03T09:56:08.061Z,5.50
2019-04-03T09:58:36.733Z,5.17
2019-04-03T10:01:05.411Z,5.13
2019-04-03T10:03:33.833Z,5.63
2019-04-03T10:06:02.283Z,5.10
2019-04-03T10:08:30.714Z,6.43
2019-04-03T10:10:59.176Z,6.37
2019-04-03T10:13:27.972Z,5.53
2019-04-03T10:15:56.477Z,4.47
2019-04-03T10:18:25.007Z,6.00
2019-04-03T10:20:53.434Z,5.67
2019-04-03T10:23:22.194Z,6.23
2019-04-03T10:25:52.914Z,6.10
2019-04-03T10:28:21.114Z,6.23
2019-04-03T10:30:51.967Z,5.60
2019-04-03T10:33:19.967Z,4.67
2019-04-03T10:35:48.415Z,5.03
2019-04-03T10:38:18.202Z,5.03
2019-04-03T10:40:47.148Z,4.50
2019-04-03T10:43:15.574Z,4.20
2019-04-03T10:45:44.018Z,4.80
2019-04-03T10:48:12.462Z,6.30
2019-04-03T10:50:40.897Z,5.33
2019-04-03T10:53:09.319Z,5.67
2019-04-03T10:55:37.943Z,4.50
2019-04-03T10:58:07.233Z,5.00
2019-04-03T11:00:37.052Z,3.30
2019-04-03T11:03:05.616Z,3.60
2019-04-03T11:05:34.062Z,4.17
2019-04-03T11:08:02.539Z,4.80
2019-04-03T11:10:31.092Z,4.03
2019-04-03T11:13:02.272Z,6.00
2019-04-03T11:15:29.739Z,3.47
2019-04-03T11:17:58.291Z,2.63
2019-04-03T11:20:26.884Z,5.93
2019-04-03T11:23:05.933Z,4.60
2019-04-03T11:25:25.937Z,3.10
2019-04-03T11:27:55.231Z,2.50
2019-04-03T11:30:24.927Z,3.40
2019-04-03T11:32:53.873Z,3.93
2019-04-03T11:35:22.610Z,4.30
2019-04-03T11:37:51.725Z,3.50
2019-04-03T11:40:20.595Z,4.67
2019-04-03T11:42:49.015Z,5.03
2019-04-03T11:45:18.155Z,3.00
2019-04-03T11:47:47.225Z,4.27
2019-04-03T11:50:16.756Z,3.13
2019-04-03T11:52:45.506Z,3.37
2019-04-03T11:55:14.710Z,3.20
2019-04-03T11:57:43.166Z,3.23
2019-04-03T12:00:15.860Z,2.40
2019-04-03T12:02:44.732Z,3.13
2019-04-03T12:05:19.770Z,3.60
2019-04-03T12:07:45.798Z,3.20
2019-04-03T12:10:14.666Z,5.33
2019-04-03T12:12:43.085Z,3.03
2019-04-03T12:15:12.861Z,3.20
2019-04-03T12:17:42.190Z,3.40
2019-04-03T12:20:15.810Z,5.00
2019-04-03T12:22:44.325Z,3.53
2019-04-03T12:25:13.183Z,2.60
2019-04-03T12:27:44.939Z,3.87
2019-04-03T12:30:12.230Z,9.63
2019-04-03T12:32:45.317Z,7.80
2019-04-03T12:35:11.752Z,5.40
2019-04-03T12:37:40.247Z,6.43
2019-04-03T12:40:09.906Z,6.80
2019-04-03T12:42:38.367Z,5.43
2019-04-03T12:45:08.812Z,5.70
2019-04-03T12:47:37.341Z,5.40
2019-04-03T12:50:07.535Z,7.40
2019-04-03T12:52:36.567Z,8.17
2019-04-03T12:55:06.871Z,4.77
2019-04-03T12:57:38.694Z,7.40
2019-04-03T13:00:12.744Z,4.67
2019-04-03T13:02:41.733Z,5.43
2019-04-03T13:05:10.973Z,10.20
2019-04-03T13:07:39.673Z,4.70
2019-04-03T13:10:10.045Z,5.70
2019-04-03T13:12:38.543Z,5.67
2019-04-03T13:15:10.843Z,5.40
2019-04-03T13:17:39.419Z,5.73
2019-04-03T13:20:08.488Z,4.57
2019-04-03T13:22:37.763Z,5.50
2019-04-03T13:25:07.623Z,7.20
2019-04-03T13:27:36.342Z,5.60
2019-04-03T13:30:11.970Z,7.07
2019-04-03T13:32:40.904Z,6.13
2019-04-03T13:35:10.477Z,6.77
2019-04-03T13:37:38.906Z,7.63
2019-04-03T13:40:08.077Z,5.50
2019-04-03T13:42:36.644Z,9.17
2019-04-03T13:45:07.484Z,10.87
2019-04-03T13:47:36.012Z,15.10
2019-04-03T13:50:08.411Z,12.60
2019-04-03T13:52:41.447Z,4.43
2019-04-03T13:55:07.817Z,6.20
2019-04-03T13:57:36.295Z,6.10
2019-04-03T14:00:18.183Z,8.10
2019-04-03T14:02:39.673Z,8.13
2019-04-03T14:05:09.010Z,6.90
2019-04-03T14:07:40.492Z,7.13
2019-04-03T14:10:09.222Z,4.97
2019-04-03T14:12:40.164Z,6.40
2019-04-03T14:15:08.507Z,12.03
2019-04-03T14:17:37.177Z,6.97
2019-04-03T14:20:07.162Z,9.87
2019-04-03T14:22:36.072Z,7.73
2019-04-03T14:25:17.787Z,9.63
2019-04-03T14:27:37.252Z,7.17
2019-04-03T14:30:11.626Z,5.70
2019-04-03T14:32:39.253Z,8.43
2019-04-03T14:35:35.187Z,5.13
2019-04-03T14:37:38.812Z,5.60
2019-04-03T14:40:11.152Z,7.00
2019-04-03T14:42:38.590Z,5.67
2019-04-03T14:45:09.157Z,5.90
2019-04-03T14:47:37.840Z,6.70
2019-04-03T14:50:07.290Z,4.90
2019-04-03T14:52:36.226Z,6.97
2019-04-03T14:55:17.194Z,10.10
2019-04-03T14:57:37.206Z,5.83
2019-04-03T15:00:23.483Z,6.03
2019-04-03T15:02:40.285Z,7.13
2019-04-03T15:05:09.409Z,6.77
2019-04-03T15:07:37.867Z,10.00
2019-04-03T15:10:07.548Z,8.13
2019-04-03T15:12:38.599Z,8.63
2019-04-03T15:15:07.396Z,7.87
2019-04-03T15:17:37.192Z,9.13
2019-04-03T15:20:09.829Z,4.53
2019-04-03T15:22:38.384Z,6.17
2019-04-03T15:25:08.645Z,12.93
2019-04-03T15:27:37.191Z,6.00
2019-04-03T15:30:10.861Z,6.20
2019-04-03T15:32:40.029Z,5.13
2019-04-03T15:35:09.159Z,6.40
2019-04-03T15:37:40.138Z,6.10
2019-04-03T15:40:08.215Z,5.17
2019-04-03T15:42:39.808Z,6.00
2019-04-03T15:45:08.157Z,5.53
2019-04-03T15:47:41.844Z,17.33
2019-04-03T15:50:08.884Z,5.50
2019-04-03T15:52:37.403Z,6.83
2019-04-03T15:55:07.631Z,6.50
2019-04-03T15:57:39.154Z,4.93
2019-04-03T16:00:12.551Z,9.70
2019-04-03T16:02:44.464Z,4.70
2019-04-03T16:05:11.913Z,6.67
2019-04-03T16:07:41.584Z,6.00
2019-04-03T16:10:11.015Z,5.47
2019-04-03T16:12:42.944Z,5.97
2019-04-03T16:15:10.760Z,7.73
2019-04-03T16:17:39.768Z,7.00
2019-04-03T16:20:08.689Z,10.30
2019-04-03T16:22:37.175Z,7.93
2019-04-03T16:25:08.032Z,8.67
2019-04-03T16:27:36.615Z,6.20
2019-04-03T16:30:09.695Z,4.63
2019-04-03T16:32:38.303Z,4.37
2019-04-03T16:35:08.101Z,10.00
2019-04-03T16:37:37.126Z,3.77
2019-04-03T16:40:08.424Z,3.17
2019-04-03T16:42:37.040Z,3.93
2019-04-03T16:45:10.593Z,5.30
2019-04-03T16:47:39.369Z,8.40
2019-04-03T16:50:08.842Z,14.37
2019-04-03T16:52:38.106Z,7.90
2019-04-03T16:55:07.967Z,6.80
2019-04-03T16:57:36.376Z,5.97
2019-04-03T17:00:08.421Z,11.47
2019-04-03T17:02:37.275Z,6.03
2019-04-03T17:05:10.490Z,7.13
2019-04-03T17:07:38.381Z,5.37
2019-04-03T17:10:09.388Z,10.57
2019-04-03T17:12:37.487Z,4.73
2019-04-03T17:15:07.429Z,3.43
2019-04-03T17:17:35.915Z,2.53
2019-04-03T17:20:07.956Z,2.97
2019-04-03T17:22:39.429Z,2.90
2019-04-03T17:25:07.935Z,8.03
2019-04-03T17:27:36.397Z,1.87
2019-04-03T17:30:10.388Z,1.53
2019-04-03T17:32:39.886Z,2.50
2019-04-03T17:35:08.861Z,3.47
2019-04-03T17:37:37.339Z,2.23
2019-04-03T17:40:08.838Z,2.27
2019-04-03T17:42:39.296Z,7.90
2019-04-03T17:45:08.053Z,2.50
2019-04-03T17:47:36.480Z,5.73
2019-04-03T17:50:06.827Z,9.73
2019-04-03T17:52:36.557Z,6.43
2019-04-03T17:55:10.780Z,3.83
2019-04-03T17:57:39.486Z,3.30
2019-04-03T18:00:20.419Z,2.73
2019-04-03T18:02:47.356Z,4.73
2019-04-03T18:05:15.800Z,6.83
2019-04-03T18:07:44.225Z,1.87
2019-04-03T18:10:13.183Z,2.00
2019-04-03T18:12:41.719Z,1.87
2019-04-03T18:15:10.741Z,3.70
2019-04-03T18:17:39.188Z,3.60
2019-04-03T18:20:08.155Z,5.03
2019-04-03T18:22:37.565Z,12.27
2019-04-03T18:25:08.257Z,17.43
2019-04-03T18:27:37.012Z,7.50
2019-04-03T18:30:11.793Z,2.30
2019-04-03T18:32:40.612Z,6.50
2019-04-03T18:35:09.776Z,3.40
2019-04-03T18:37:40.573Z,2.07
2019-04-03T18:40:12.199Z,2.23
2019-04-03T18:42:40.500Z,3.00
2019-04-03T18:45:09.467Z,1.63
2019-04-03T18:47:41.428Z,1.00
2019-04-03T18:50:10.054Z,1.10
2019-04-03T18:52:39.272Z,1.37
2019-04-03T18:55:07.912Z,1.10
2019-04-03T18:57:36.353Z,1.30
2019-04-03T19:00:08.002Z,1.53
2019-04-03T19:02:36.460Z,2.33
2019-04-03T19:05:09.251Z,1.20
2019-04-03T19:07:37.266Z,7.33
2019-04-03T19:10:07.882Z,1.13
2019-04-03T19:12:36.527Z,2.07
2019-04-03T19:15:06.787Z,4.53
2019-04-03T19:17:35.216Z,1.07
2019-04-03T19:20:10.591Z,1.10
2019-04-03T19:22:35.204Z,1.10
2019-04-03T19:25:05.062Z,1.80
2019-04-03T19:27:33.501Z,2.00
2019-04-03T19:30:01.919Z,1.30
2019-04-03T19:32:30.386Z,2.43
2019-04-03T19:34:58.870Z,1.07
2019-04-03T19:37:27.406Z,3.10
2019-04-03T19:39:56.075Z,1.03
2019-04-03T19:42:24.529Z,1.93
2019-04-03T19:44:52.970Z,1.43
2019-04-03T19:47:22.803Z,3.50
2019-04-03T19:49:51.542Z,1.27
2019-04-03T19:52:20.073Z,1.30
2019-04-03T19:54:49.659Z,1.40
2019-04-03T19:57:18.616Z,1.13
2019-04-03T19:59:47.034Z,2.20
2019-04-03T20:02:15.481Z,1.57
2019-04-03T20:04:43.906Z,1.67
2019-04-03T20:07:12.466Z,3.83
2019-04-03T20:09:41.910Z,1.20
2019-04-03T20:12:10.338Z,1.10
2019-04-03T20:14:38.874Z,2.13
2019-04-03T20:17:07.325Z,1.53
2019-04-03T20:19:35.759Z,1.33
2019-04-03T20:22:06.613Z,1.67
2019-04-03T20:24:34.357Z,1.50
2019-04-03T20:27:02.799Z,2.97
2019-04-03T20:29:31.818Z,1.40
2019-04-03T20:32:00.346Z,6.17
2019-04-03T20:34:28.766Z,1.57
2019-04-03T20:36:57.209Z,2.57
2019-04-03T20:39:28.713Z,1.70
2019-04-03T20:41:55.767Z,2.40
2019-04-03T20:44:24.201Z,1.77
2019-04-03T20:46:55.690Z,1.27
2019-04-03T20:49:23.024Z,2.17
2019-04-03T20:51:51.460Z,3.17
2019-04-03T20:54:21.323Z,1.93
2019-04-03T20:56:57.802Z,1.70
2019-04-03T20:59:20.190Z,2.20
2019-04-03T21:01:48.607Z,3.50
2019-04-03T21:04:17.047Z,2.20
2019-04-03T21:06:45.461Z,1.80
2019-04-03T21:09:13.893Z,2.33
2019-04-03T21:11:42.319Z,2.07
2019-04-03T21:14:11.291Z,3.20
2019-04-03T21:16:40.158Z,2.10
2019-04-03T21:19:08.603Z,2.10
2019-04-03T21:21:37.025Z,2.80
2019-04-03T21:24:05.535Z,2.27
2019-04-03T21:26:33.968Z,2.17
2019-04-03T21:29:02.398Z,4.53
2019-04-03T21:31:30.823Z,5.17
2019-04-03T21:34:01.600Z,4.33
2019-04-03T21:36:29.411Z,2.07
2019-04-03T21:38:58.095Z,3.53
2019-04-03T21:41:26.538Z,2.67
2019-04-03T21:43:55.846Z,7.43
2019-04-03T21:46:24.267Z,2.83
2019-04-03T21:48:52.706Z,4.83
2019-04-03T21:51:21.404Z,2.50
2019-04-03T21:53:49.829Z,1.73
2019-04-03T21:56:18.255Z,3.33
2019-04-03T21:58:46.698Z,5.13
2019-04-03T22:01:18.195Z,1.43
2019-04-03T22:03:46.620Z,2.00
2019-04-03T22:06:15.106Z,1.80
2019-04-03T22:08:43.682Z,13.67
2019-04-03T22:11:12.099Z,1.50
2019-04-03T22:13:40.532Z,4.80
2019-04-03T22:16:08.958Z,1.53
2019-04-03T22:18:37.391Z,1.33
2019-04-03T22:21:05.891Z,3.47
2019-04-03T22:23:35.937Z,1.77
2019-04-03T22:26:04.521Z,1.50
2019-04-03T22:28:32.949Z,1.73
2019-04-03T22:31:01.377Z,1.63
2019-04-03T22:33:29.813Z,1.50
2019-04-03T22:35:58.309Z,2.23
2019-04-03T22:38:26.735Z,2.47
2019-04-03T22:40:55.178Z,2.50
2019-04-03T22:43:23.610Z,3.70
2019-04-03T22:45:52.022Z,2.33
2019-04-03T22:48:20.463Z,1.40
2019-04-03T22:50:48.955Z,1.90
2019-04-03T22:53:17.381Z,2.17
2019-04-03T22:55:46.545Z,2.43
2019-04-03T22:58:15.513Z,2.30
2019-04-03T23:00:43.937Z,5.43
2019-04-03T23:03:13.441Z,4.50
2019-04-03T23:05:42.020Z,3.50
2019-04-03T23:08:10.483Z,3.10
2019-04-03T23:10:38.967Z,3.47
2019-04-03T23:13:07.454Z,2.33
2019-04-03T23:15:35.892Z,3.20
2019-04-03T23:18:04.377Z,2.87
2019-04-03T23:20:32.895Z,3.10
2019-04-03T23:23:01.314Z,4.10
2019-04-03T23:25:30.249Z,5.03
2019-04-03T23:27:58.986Z,3.23
2019-04-03T23:30:27.430Z,3.87
2019-04-03T23:32:55.939Z,2.27
2019-04-03T23:35:24.437Z,5.30
2019-04-03T23:37:53.870Z,2.97
2019-04-03T23:40:23.017Z,3.90
2019-04-03T23:42:51.455Z,8.47
2019-04-03T23:45:20.660Z,4.50
2019-04-03T23:47:49.073Z,4.13
2019-04-03T23:50:17.526Z,4.57
2019-04-03T23:52:45.949Z,4.63
2019-04-03T23:55:14.389Z,6.93
2019-04-03T23:57:42.841Z,6.20
